createdAt,value
2023-04-15T07:13:58.837Z,0.08
2023-04-15T07:14:13.794Z,0.19
2023-04-15T07:15:14.700Z,0.00
2023-04-15T07:16:13.825Z,0.00
2023-04-15T07:17:13.924Z,2.92
2023-04-15T07:18:13.218Z,1.32
2023-04-15T07:19:13.374Z,0.00
2023-04-15T07:20:13.410Z,0.00
2023-04-15T07:21:13.269Z,0.00
2023-04-15T07:22:13.183Z,4.24
2023-04-15T07:23:13.089Z,5.00
2023-04-15T07:24:13.379Z,10.28
2023-04-15T07:25:13.433Z,1.12
2023-04-15T07:26:13.475Z,8.44
2023-04-15T07:27:13.547Z,0.84
2023-04-15T07:28:13.618Z,0.00
2023-04-15T07:29:13.619Z,0.00
2023-04-15T07:30:13.541Z,0.00
2023-04-15T07:31:13.457Z,2.60
2023-04-15T07:32:13.532Z,13.44
2023-04-15T07:33:13.496Z,0.44
2023-04-15T07:34:13.390Z,1.84
2023-04-15T07:35:13.569Z,0.68
2023-04-15T07:36:13.501Z,5.32
2023-04-15T07:37:13.617Z,0.00
2023-04-15T07:38:13.858Z,7.80
2023-04-15T07:39:14.116Z,15.08
2023-04-15T07:40:12.952Z,2.40
2023-04-15T07:41:12.959Z,0.00
2023-04-15T07:42:13.127Z,7.44
2023-04-15T07:43:13.206Z,18.20
2023-04-15T07:44:13.176Z,8.08
2023-04-15T07:45:13.383Z,11.32
2023-04-15T07:46:13.461Z,9.56
2023-04-15T07:47:13.688Z,21.00
2023-04-15T07:48:13.759Z,12.28
2023-04-15T07:49:13.827Z,3.68
2023-04-15T07:50:13.769Z,6.32
2023-04-15T07:51:13.635Z,3.92
2023-04-15T07:52:13.524Z,0.48
2023-04-15T07:53:13.516Z,9.28
2023-04-15T07:54:13.550Z,18.48
2023-04-15T07:55:13.662Z,20.20
2023-04-15T07:56:13.719Z,7.96
2023-04-15T07:57:13.705Z,13.44
2023-04-15T07:58:14.223Z,9.16
2023-04-15T07:59:13.083Z,10.88
2023-04-15T08:00:13.008Z,16.16
2023-04-15T08:01:12.912Z,22.96
2023-04-15T08:02:13.191Z,18.00
2023-04-15T08:03:13.748Z,7.48
2023-04-15T08:04:12.856Z,22.00
2023-04-15T08:05:14.308Z,6.80
2023-04-15T08:06:13.558Z,10.52
2023-04-15T08:07:13.970Z,11.00
2023-04-15T08:08:12.889Z,10.88
2023-04-15T08:09:12.990Z,7.88
2023-04-15T08:10:12.781Z,12.36
2023-04-15T08:11:14.001Z,13.16
2023-04-15T08:12:13.084Z,11.08
2023-04-15T08:13:13.129Z,8.32
2023-04-15T08:14:13.005Z,6.92
2023-04-15T08:15:13.203Z,9.92
2023-04-15T08:16:13.071Z,14.68
2023-04-15T08:17:12.979Z,20.56
2023-04-15T08:18:12.924Z,24.60
2023-04-15T08:19:12.847Z,11.68
2023-04-15T08:20:13.895Z,29.04
2023-04-15T08:21:13.193Z,25.20
2023-04-15T08:22:18.517Z,27.40
2023-04-15T08:23:13.671Z,29.00
2023-04-15T08:24:13.676Z,22.76
2023-04-15T08:25:13.536Z,18.48
2023-04-15T08:26:13.487Z,31.28
2023-04-15T08:27:13.383Z,32.64
2023-04-15T08:28:13.341Z,26.04
2023-04-15T08:29:13.602Z,17.68
2023-04-15T08:30:13.809Z,12.24
2023-04-15T08:31:13.925Z,15.48
2023-04-15T08:32:13.090Z,16.88
2023-04-15T08:33:13.311Z,31.64
2023-04-15T08:34:13.560Z,30.60
2023-04-15T08:35:13.950Z,35.60
2023-04-15T08:36:12.820Z,29.12
2023-04-15T08:37:13.781Z,29.48
2023-04-15T08:38:13.758Z,36.28
2023-04-15T08:39:13.721Z,40.77
2023-04-15T08:40:13.746Z,35.88
2023-04-15T08:41:13.791Z,27.32
2023-04-15T08:42:13.714Z,34.16
2023-04-15T08:43:13.617Z,11.32
2023-04-15T08:44:13.564Z,29.56
2023-04-15T08:45:13.616Z,21.04
2023-04-15T08:46:13.606Z,7.96
2023-04-15T08:47:13.545Z,6.52
2023-04-15T08:48:13.843Z,21.40
2023-04-15T08:49:13.737Z,43.76
2023-04-15T08:50:13.637Z,36.04
2023-04-15T08:51:13.504Z,39.08
2023-04-15T08:52:13.648Z,20.72
2023-04-15T08:53:13.990Z,39.64
2023-04-15T08:54:12.937Z,42.40
2023-04-15T08:55:12.928Z,38.24
2023-04-15T08:56:12.852Z,27.16
2023-04-15T08:57:13.841Z,30.44
2023-04-15T08:58:13.845Z,41.28
2023-04-15T08:59:13.824Z,39.24
2023-04-15T09:00:13.722Z,29.36
2023-04-15T09:01:13.696Z,28.56
2023-04-15T09:02:13.842Z,25.40
2023-04-15T09:03:14.499Z,26.00
2023-04-15T09:04:14.554Z,29.20
2023-04-15T09:05:13.497Z,41.16
2023-04-15T09:06:13.712Z,27.84
2023-04-15T09:07:13.772Z,31.64
2023-04-15T09:08:13.852Z,44.60
2023-04-15T09:09:12.870Z,39.52
2023-04-15T09:10:13.869Z,33.64
2023-04-15T09:11:13.866Z,42.76
2023-04-15T09:12:13.727Z,40.80
2023-04-15T09:13:13.663Z,36.24
2023-04-15T09:14:13.574Z,43.36
2023-04-15T09:15:13.583Z,40.56
2023-04-15T09:16:13.789Z,35.36
2023-04-15T09:17:13.697Z,36.60
2023-04-15T09:18:14.159Z,33.40
2023-04-15T09:19:13.412Z,34.08
2023-04-15T09:20:13.482Z,47.60
2023-04-15T09:21:13.422Z,52.00
2023-04-15T09:22:13.679Z,22.08
2023-04-15T09:23:13.637Z,16.32
2023-04-15T09:24:13.832Z,36.16
2023-04-15T09:25:14.027Z,27.44
2023-04-15T09:26:12.834Z,28.28
2023-04-15T09:27:13.872Z,29.36
2023-04-15T09:28:13.858Z,51.36
2023-04-15T09:29:13.930Z,45.96
2023-04-15T09:30:12.873Z,48.08
2023-04-15T09:31:14.210Z,42.28
2023-04-15T09:32:13.262Z,55.52
2023-04-15T09:33:13.756Z,54.20
2023-04-15T09:34:14.036Z,32.32
2023-04-15T09:35:13.024Z,48.56
2023-04-15T09:36:12.916Z,42.16
2023-04-15T09:37:15.096Z,55.04
2023-04-15T09:38:13.430Z,37.24
2023-04-15T09:39:13.490Z,51.72
2023-04-15T09:40:13.801Z,40.00
2023-04-15T09:41:13.792Z,35.36
2023-04-15T09:42:14.297Z,16.88
2023-04-15T09:43:13.255Z,37.52
2023-04-15T09:44:13.490Z,53.44
2023-04-15T09:45:13.548Z,33.84
2023-04-15T09:46:13.793Z,54.52
2023-04-15T09:47:13.786Z,32.48
2023-04-15T09:48:13.838Z,25.44
2023-04-15T09:49:14.008Z,43.48
2023-04-15T09:50:13.065Z,20.84
2023-04-15T09:51:13.154Z,27.48
2023-04-15T09:52:13.018Z,28.92
2023-04-15T09:53:13.203Z,27.24
2023-04-15T09:54:13.136Z,43.52
2023-04-15T09:55:13.404Z,46.32
2023-04-15T09:56:13.272Z,27.60
2023-04-15T09:57:13.328Z,36.72
2023-04-15T09:58:13.179Z,33.76
2023-04-15T09:59:13.345Z,44.56
2023-04-15T10:00:13.277Z,36.72
2023-04-15T10:01:13.601Z,41.52
2023-04-15T10:02:13.714Z,42.44
2023-04-15T10:03:13.908Z,37.44
2023-04-15T10:04:12.944Z,43.32
2023-04-15T10:05:13.175Z,42.92
2023-04-15T10:06:12.995Z,25.40
2023-04-15T10:07:13.147Z,39.92
2023-04-15T10:08:13.057Z,52.68
2023-04-15T10:09:13.405Z,41.16
2023-04-15T10:10:13.386Z,41.88
2023-04-15T10:11:14.026Z,43.72
2023-04-15T10:12:13.265Z,32.20
2023-04-15T10:13:13.567Z,11.60
2023-04-15T10:14:13.437Z,14.56
2023-04-15T10:15:13.471Z,35.40
2023-04-15T10:16:13.526Z,33.28
2023-04-15T10:17:13.511Z,45.88
2023-04-15T10:18:13.363Z,36.24
2023-04-15T10:19:13.433Z,54.24
2023-04-15T10:20:13.331Z,35.16
2023-04-15T10:21:13.319Z,32.96
2023-04-15T10:22:13.257Z,46.84
2023-04-15T10:23:13.517Z,33.72
2023-04-15T10:24:13.427Z,23.44
2023-04-15T10:25:13.555Z,30.04
2023-04-15T10:26:13.564Z,30.08
2023-04-15T10:27:13.453Z,35.36
2023-04-15T10:28:13.381Z,20.96
2023-04-15T10:29:13.418Z,11.04
2023-04-15T10:30:13.228Z,18.16
2023-04-15T10:31:13.610Z,33.56
2023-04-15T10:32:13.765Z,47.56
2023-04-15T10:33:14.215Z,27.60
2023-04-15T10:34:13.081Z,22.04
2023-04-15T10:35:13.017Z,46.40
2023-04-15T10:36:12.969Z,47.76
2023-04-15T10:37:12.841Z,42.84
2023-04-15T10:38:13.755Z,55.16
2023-04-15T10:39:13.809Z,46.12
2023-04-15T10:40:13.935Z,49.80
2023-04-15T10:41:12.832Z,52.16
2023-04-15T10:42:13.878Z,57.76
2023-04-15T10:43:13.143Z,43.72
2023-04-15T10:44:13.068Z,41.24
2023-04-15T10:45:12.941Z,29.72
2023-04-15T10:46:13.667Z,23.08
2023-04-15T10:47:13.762Z,7.12
2023-04-15T10:48:14.170Z,25.32
2023-04-15T10:49:13.032Z,14.48
2023-04-15T10:50:13.145Z,18.04
2023-04-15T10:51:13.118Z,24.40
2023-04-15T10:52:13.130Z,15.68
2023-04-15T10:53:13.125Z,35.72
2023-04-15T10:54:13.428Z,26.68
2023-04-15T10:55:13.761Z,9.12
2023-04-15T10:56:13.655Z,11.80
2023-04-15T10:57:13.750Z,14.68
2023-04-15T10:58:15.439Z,34.64
2023-04-15T10:59:13.744Z,28.12
2023-04-15T11:00:13.984Z,43.56
2023-04-15T11:01:13.534Z,22.20
2023-04-15T11:02:13.598Z,3.88
2023-04-15T11:03:14.090Z,26.72
2023-04-15T11:04:14.821Z,36.64
2023-04-15T11:05:13.778Z,33.68
2023-04-15T11:06:13.797Z,26.32
2023-04-15T11:07:14.079Z,24.08
2023-04-15T11:08:13.218Z,14.88
2023-04-15T11:09:13.177Z,18.28
2023-04-15T11:10:13.158Z,20.52
2023-04-15T11:11:13.325Z,20.12
2023-04-15T11:12:13.461Z,16.92
2023-04-15T11:13:13.415Z,31.32
2023-04-15T11:14:13.289Z,28.28
2023-04-15T11:15:13.363Z,9.24
2023-04-15T11:16:13.450Z,11.76
2023-04-15T11:17:13.497Z,14.64
2023-04-15T11:18:13.308Z,12.04
2023-04-15T11:19:13.174Z,15.28
2023-04-15T11:20:13.017Z,39.52
2023-04-15T11:21:12.882Z,17.36
2023-04-15T11:22:13.746Z,35.96
2023-04-15T11:23:15.123Z,27.00
2023-04-15T11:24:14.210Z,28.00
2023-04-15T11:25:13.156Z,12.36
2023-04-15T11:26:13.097Z,16.24
2023-04-15T11:27:13.303Z,41.56
2023-04-15T11:28:13.246Z,19.44
2023-04-15T11:29:13.501Z,6.36
2023-04-15T11:30:13.701Z,10.68
2023-04-15T11:31:18.966Z,20.28
2023-04-15T11:32:13.159Z,24.20
2023-04-15T11:33:13.267Z,24.16
2023-04-15T11:34:13.152Z,22.40
2023-04-15T11:35:13.242Z,17.80
2023-04-15T11:36:13.288Z,33.32
2023-04-15T11:37:13.300Z,17.68
2023-04-15T11:38:13.301Z,20.76
2023-04-15T11:39:13.266Z,34.88
2023-04-15T11:40:13.233Z,22.44
2023-04-15T11:41:13.401Z,15.20
2023-04-15T11:42:13.688Z,16.32
2023-04-15T11:43:13.595Z,8.44
2023-04-15T11:45:10.388Z,9.24
2023-04-15T11:45:15.159Z,9.24
2023-04-15T11:46:13.044Z,17.32
2023-04-15T11:47:13.254Z,7.84
2023-04-15T11:48:13.528Z,33.40
2023-04-15T11:49:14.669Z,11.04
2023-04-15T11:50:13.774Z,18.76
2023-04-15T11:51:13.887Z,25.20
2023-04-15T11:52:12.845Z,17.76
2023-04-15T11:53:13.958Z,32.24
2023-04-15T11:54:13.155Z,17.72
2023-04-15T11:55:13.232Z,18.64
2023-04-15T11:56:13.388Z,13.12
2023-04-15T11:57:13.416Z,14.80
2023-04-15T11:58:15.643Z,16.08
2023-04-15T11:59:13.401Z,16.88
2023-04-15T12:00:13.373Z,11.24
2023-04-15T12:01:13.670Z,10.76
2023-04-15T12:02:13.807Z,10.72
2023-04-15T12:03:13.984Z,6.36
2023-04-15T12:04:13.329Z,6.96
2023-04-15T12:05:13.493Z,10.72
2023-04-15T12:06:39.534Z,14.80
2023-04-15T12:07:13.520Z,16.80
2023-04-15T12:08:18.648Z,16.68
2023-04-15T12:09:14.029Z,31.16
2023-04-15T12:10:38.224Z,8.88
2023-04-15T12:12:14.289Z,10.80
2023-04-15T12:13:13.612Z,10.32
2023-04-15T12:14:13.443Z,16.32
2023-04-15T12:15:23.661Z,29.64
2023-04-15T12:16:13.899Z,14.40
2023-04-15T12:17:12.945Z,15.84
2023-04-15T12:18:13.156Z,12.08
2023-04-15T12:19:13.156Z,15.56
2023-04-15T12:20:13.171Z,10.16
2023-04-15T12:22:22.049Z,4.80
2023-04-15T12:23:13.340Z,11.69
2023-04-15T12:24:13.539Z,3.08
2023-04-15T12:25:13.684Z,9.80
2023-04-15T12:26:23.429Z,10.08
2023-04-15T12:27:13.624Z,15.60
2023-04-15T12:28:23.853Z,17.00
2023-04-15T12:29:39.201Z,23.52
2023-04-15T12:30:13.160Z,9.48
2023-04-15T12:31:13.190Z,13.00
2023-04-15T12:33:28.034Z,23.76
2023-04-15T12:34:12.941Z,9.24
2023-04-15T12:35:12.825Z,14.68
2023-04-15T12:36:13.755Z,6.12
2023-04-15T12:37:13.952Z,6.08
2023-04-15T12:38:12.995Z,14.44
2023-04-15T12:39:13.218Z,15.40
2023-04-15T12:40:13.322Z,4.52
2023-04-15T12:41:13.259Z,11.56
2023-04-15T12:42:13.220Z,6.80
2023-04-15T12:43:13.136Z,17.84
2023-04-15T12:44:13.095Z,14.76
2023-04-15T12:45:13.042Z,7.16
2023-04-15T12:46:13.069Z,10.76
2023-04-15T12:47:12.968Z,16.32
2023-04-15T12:48:13.143Z,21.36
2023-04-15T12:49:13.207Z,21.68
2023-04-15T12:50:13.207Z,20.68
2023-04-15T12:51:13.136Z,13.52
2023-04-15T12:52:12.992Z,17.20
2023-04-15T12:53:13.165Z,11.52
2023-04-15T12:54:13.241Z,9.20
2023-04-15T12:55:13.126Z,15.68
2023-04-15T12:56:12.971Z,6.92
2023-04-15T12:57:13.444Z,7.92
2023-04-15T12:58:13.641Z,10.28
2023-04-15T12:59:13.665Z,5.36
2023-04-15T13:00:13.692Z,9.96
2023-04-15T13:01:13.588Z,10.48
2023-04-15T13:02:13.630Z,13.08
2023-04-15T13:03:13.809Z,14.16
2023-04-15T13:04:13.196Z,28.28
2023-04-15T13:05:13.600Z,10.28
2023-04-15T13:06:13.920Z,5.92
2023-04-15T13:07:13.393Z,20.68
2023-04-15T13:08:13.999Z,9.32
2023-04-15T13:09:12.915Z,10.60
2023-04-15T13:10:12.910Z,19.28
2023-04-15T13:11:12.792Z,7.48
2023-04-15T13:12:13.734Z,18.64
2023-04-15T13:13:13.782Z,9.04
2023-04-15T13:14:13.884Z,14.32
2023-04-15T13:15:12.921Z,15.36
2023-04-15T13:16:13.148Z,13.36
2023-04-15T13:17:13.051Z,20.60
2023-04-15T13:18:12.886Z,19.16
2023-04-15T13:19:12.737Z,15.32
2023-04-15T13:20:13.696Z,12.28
2023-04-15T13:21:13.838Z,14.00
2023-04-15T13:22:13.635Z,14.88
2023-04-15T13:23:13.707Z,19.80
2023-04-15T13:24:13.602Z,22.68
2023-04-15T13:25:13.658Z,19.56
2023-04-15T13:26:13.703Z,11.72
2023-04-15T13:27:13.641Z,10.80
2023-04-15T13:28:13.724Z,18.44
2023-04-15T13:29:13.752Z,7.80
2023-04-15T13:30:13.576Z,14.76
2023-04-15T13:31:13.501Z,11.76
2023-04-15T13:32:13.524Z,11.64
2023-04-15T13:33:13.561Z,10.88
2023-04-15T13:34:13.448Z,9.92
2023-04-15T13:35:13.416Z,9.20
2023-04-15T13:36:13.302Z,7.40
2023-04-15T13:37:13.550Z,8.28
2023-04-15T13:38:13.448Z,13.60
2023-04-15T13:39:13.412Z,19.88
2023-04-15T13:40:13.687Z,20.84
2023-04-15T13:41:45.888Z,29.28
2023-04-15T13:42:12.877Z,17.88
2023-04-15T13:43:13.771Z,23.84
2023-04-15T13:44:13.642Z,12.48
2023-04-15T13:45:13.556Z,13.04
2023-04-15T13:46:41.461Z,9.96
2023-04-15T13:47:12.936Z,17.04
2023-04-15T13:48:13.246Z,8.16
2023-04-15T13:49:13.408Z,22.62
2023-04-15T13:50:13.493Z,14.08
2023-04-15T13:51:34.164Z,15.60
2023-04-15T13:52:13.078Z,21.36
2023-04-15T13:53:13.001Z,11.84
2023-04-15T13:54:13.244Z,5.36
2023-04-15T13:55:21.154Z,15.44
2023-04-15T13:56:13.291Z,13.28
2023-04-15T13:57:13.108Z,23.40
2023-04-15T13:58:13.128Z,16.40
2023-04-15T13:59:13.047Z,13.72
2023-04-15T14:00:12.857Z,11.04
2023-04-15T14:01:14.021Z,25.16
2023-04-15T14:02:13.405Z,27.32
2023-04-15T14:03:13.620Z,28.00
2023-04-15T14:04:13.834Z,23.76
2023-04-15T14:05:12.976Z,18.52
2023-04-15T14:06:13.525Z,26.24
2023-04-15T14:07:13.795Z,9.28
2023-04-15T14:08:14.088Z,20.64
2023-04-15T14:09:12.941Z,19.04
2023-04-15T14:10:12.820Z,12.68
2023-04-15T14:11:13.597Z,16.84
2023-04-15T14:12:18.688Z,14.20
2023-04-15T14:13:13.536Z,11.72
2023-04-15T14:14:15.262Z,13.44
2023-04-15T14:15:13.177Z,10.56
2023-04-15T14:16:13.219Z,10.44
2023-04-15T14:17:13.264Z,15.72
2023-04-15T14:18:13.480Z,9.84
2023-04-15T14:19:13.558Z,14.36
2023-04-15T14:20:16.777Z,18.20
2023-04-15T14:21:13.272Z,19.24
2023-04-15T14:22:13.352Z,12.84
2023-04-15T14:23:13.262Z,7.78
2023-04-15T14:24:13.223Z,14.36
2023-04-15T14:25:20.147Z,12.56
2023-04-15T14:26:13.889Z,9.60
2023-04-15T14:27:13.005Z,12.60
2023-04-15T14:28:13.079Z,22.32
2023-04-15T14:29:12.990Z,13.80
2023-04-15T14:30:12.958Z,24.64
2023-04-15T14:31:13.107Z,14.80
2023-04-15T14:32:13.268Z,17.48
2023-04-15T14:33:13.698Z,22.88
2023-04-15T14:34:13.692Z,19.52
2023-04-15T14:35:13.890Z,18.52
2023-04-15T14:36:13.982Z,12.56
2023-04-15T14:37:13.177Z,20.12
2023-04-15T14:38:13.072Z,17.68
2023-04-15T14:39:13.003Z,34.84
2023-04-15T14:40:12.877Z,25.12
2023-04-15T14:41:13.898Z,17.48
2023-04-15T14:42:12.911Z,11.44
2023-04-15T14:43:13.051Z,19.24
2023-04-15T14:44:13.129Z,13.56
2023-04-15T14:45:13.242Z,4.64
2023-04-15T14:46:13.389Z,12.72
2023-04-15T14:47:13.616Z,15.76
2023-04-15T14:48:13.484Z,14.68
2023-04-15T14:49:13.806Z,16.28
2023-04-15T14:50:13.692Z,9.60
2023-04-15T14:51:13.913Z,12.92
2023-04-15T14:52:12.847Z,9.40
2023-04-15T14:53:13.751Z,10.32
2023-04-15T14:54:14.120Z,18.40
2023-04-15T14:55:13.043Z,16.92
2023-04-15T14:56:13.103Z,12.64
2023-04-15T14:57:12.993Z,17.16
2023-04-15T14:58:12.859Z,15.32
2023-04-15T14:59:13.783Z,22.64
2023-04-15T15:00:15.949Z,19.96
2023-04-15T15:01:13.471Z,17.44
2023-04-15T15:03:13.727Z,12.76
2023-04-15T15:04:14.104Z,16.84
2023-04-15T15:05:13.392Z,10.84
2023-04-15T15:06:13.349Z,26.36
2023-04-15T15:07:13.801Z,14.24
2023-04-15T15:08:13.725Z,15.16
2023-04-15T15:09:13.658Z,9.28
2023-04-15T15:10:49.478Z,12.48
2023-04-15T15:11:12.901Z,30.72
2023-04-15T15:12:12.849Z,24.28
2023-04-15T15:13:13.885Z,22.48
2023-04-15T15:14:13.081Z,23.68
2023-04-15T15:15:28.043Z,13.88
2023-04-15T15:16:14.746Z,14.40
2023-04-15T15:17:12.994Z,25.40
2023-04-15T15:18:12.981Z,22.24
2023-04-15T15:19:13.291Z,26.36
2023-04-15T15:20:13.505Z,13.40
2023-04-15T15:21:13.588Z,21.20
2023-04-15T15:22:13.514Z,21.76
2023-04-15T15:23:13.431Z,15.92
2023-04-15T15:24:13.212Z,20.40
2023-04-15T15:25:13.130Z,16.48
2023-04-15T15:26:13.028Z,8.68
2023-04-15T15:27:12.980Z,17.32
2023-04-15T15:28:12.961Z,21.92
2023-04-15T15:29:12.927Z,13.60
2023-04-15T15:30:12.892Z,23.24
2023-04-15T15:31:13.857Z,15.16
2023-04-15T15:32:13.790Z,11.44
2023-04-15T15:33:13.994Z,10.12
2023-04-15T15:34:12.858Z,9.04
2023-04-15T15:35:13.792Z,7.52
2023-04-15T15:36:13.555Z,6.40
2023-04-15T15:37:13.438Z,13.40
2023-04-15T15:38:13.305Z,14.60
2023-04-15T15:39:13.232Z,8.12
2023-04-15T15:40:46.175Z,6.00
2023-04-15T15:41:13.372Z,22.32
2023-04-15T15:42:13.946Z,19.68
2023-04-15T15:43:12.913Z,11.57
2023-04-15T15:44:13.000Z,8.32
2023-04-15T15:45:13.346Z,16.12
2023-04-15T15:46:13.478Z,8.84
2023-04-15T15:47:13.455Z,11.20
2023-04-15T15:48:23.494Z,11.52
2023-04-15T15:49:13.895Z,13.92
2023-04-15T15:50:13.021Z,12.76
2023-04-15T15:51:12.908Z,10.68
2023-04-15T15:52:13.147Z,15.20
2023-04-15T15:53:13.271Z,9.48
2023-04-15T15:54:13.305Z,4.04
2023-04-15T15:55:13.239Z,6.92
2023-04-15T15:56:13.378Z,9.40
2023-04-15T15:57:13.315Z,8.60
2023-04-15T15:58:13.478Z,2.72
2023-04-15T15:59:13.358Z,14.12
2023-04-15T16:00:13.346Z,9.60
2023-04-15T16:01:13.441Z,13.44
2023-04-15T16:02:13.635Z,10.12
2023-04-15T16:03:13.982Z,12.96
2023-04-15T16:04:13.176Z,7.36
2023-04-15T16:05:13.464Z,10.48
2023-04-15T16:06:13.348Z,3.96
2023-04-15T16:07:13.268Z,2.88
2023-04-15T16:08:13.198Z,4.44
2023-04-15T16:09:13.087Z,4.20
2023-04-15T16:10:13.050Z,8.72
2023-04-15T16:11:12.934Z,9.28
2023-04-15T16:12:12.783Z,3.28
2023-04-15T16:13:13.605Z,3.04
2023-04-15T16:14:13.871Z,4.56
2023-04-15T16:15:13.846Z,4.72
2023-04-15T16:16:13.919Z,11.12
2023-04-15T16:17:12.991Z,5.04
2023-04-15T16:18:12.979Z,5.88
2023-04-15T16:19:12.826Z,6.12
2023-04-15T16:20:13.864Z,6.44
2023-04-15T16:21:13.819Z,7.68
2023-04-15T16:22:13.930Z,8.28
2023-04-15T16:23:12.817Z,4.76
2023-04-15T16:24:13.828Z,3.88
2023-04-15T16:25:13.799Z,5.52
2023-04-15T16:26:13.704Z,4.00
2023-04-15T16:27:13.764Z,5.56
2023-04-15T16:28:25.570Z,5.28
2023-04-15T16:29:13.349Z,7.00
2023-04-15T16:30:13.539Z,9.64
2023-04-15T16:31:13.645Z,6.08
2023-04-15T16:32:13.749Z,5.04
2023-04-15T16:33:13.888Z,6.20
2023-04-15T16:34:13.875Z,3.88
2023-04-15T16:35:13.870Z,8.64
2023-04-15T16:36:13.773Z,6.84
2023-04-15T16:37:13.828Z,10.80
2023-04-15T16:38:13.890Z,5.00
2023-04-15T16:39:12.886Z,3.16
2023-04-15T16:40:12.904Z,9.56
2023-04-15T16:41:14.211Z,11.60
2023-04-15T16:42:13.157Z,7.52
2023-04-15T16:43:13.122Z,6.00
2023-04-15T16:44:13.153Z,7.92
2023-04-15T16:45:13.184Z,5.44
2023-04-15T16:46:13.228Z,6.48
2023-04-15T16:47:13.915Z,9.24
2023-04-15T16:48:12.794Z,3.60
2023-04-15T16:49:13.756Z,7.08
2023-04-15T16:50:13.710Z,5.52
2023-04-15T16:51:13.576Z,4.52
2023-04-15T16:52:13.499Z,3.92
2023-04-15T16:53:13.433Z,1.64
2023-04-15T16:54:13.406Z,3.60
2023-04-15T16:55:13.526Z,4.20
2023-04-15T16:56:13.531Z,4.52
2023-04-15T16:57:13.545Z,7.44
2023-04-15T16:58:13.479Z,4.00
2023-04-15T16:59:13.368Z,3.52
2023-04-15T17:00:15.470Z,9.12
2023-04-15T17:01:13.723Z,9.32
2023-04-15T17:02:13.787Z,7.40
2023-04-15T17:03:13.539Z,5.88
2023-04-15T17:04:13.850Z,9.24
2023-04-15T17:05:12.813Z,5.52
2023-04-15T17:06:13.914Z,4.64
2023-04-15T17:07:13.021Z,4.08
2023-04-15T17:08:12.996Z,4.72
2023-04-15T17:09:13.268Z,4.40
2023-04-15T17:10:13.043Z,8.16
2023-04-15T17:11:13.052Z,6.40
2023-04-15T17:12:13.014Z,10.44
2023-04-15T17:13:13.117Z,7.92
2023-04-15T17:14:13.156Z,6.44
2023-04-15T17:15:13.132Z,7.40
2023-04-15T17:16:13.102Z,3.96
2023-04-15T17:17:13.173Z,1.72
2023-04-15T17:18:18.063Z,2.88
2023-04-15T17:19:13.198Z,3.68
2023-04-15T17:20:13.287Z,9.36
2023-04-15T17:21:13.207Z,3.00
2023-04-15T17:22:13.116Z,3.52
2023-04-15T17:23:13.208Z,8.52
2023-04-15T17:24:13.343Z,4.84
2023-04-15T17:25:13.504Z,4.80
2023-04-15T17:26:13.652Z,4.32
2023-04-15T17:27:13.689Z,4.36
2023-04-15T17:28:13.893Z,5.56
2023-04-15T17:29:12.953Z,5.48
2023-04-15T17:30:13.236Z,3.32
2023-04-15T17:31:13.409Z,6.72
2023-04-15T17:32:13.698Z,2.00
2023-04-15T17:33:53.463Z,6.20
2023-04-15T17:34:15.767Z,5.72
2023-04-15T17:35:43.537Z,4.08
2023-04-15T17:37:13.556Z,2.54
2023-04-15T17:38:13.350Z,6.52
2023-04-15T17:39:13.251Z,4.88
2023-04-15T17:40:13.279Z,2.72
2023-04-15T17:41:13.200Z,6.20
2023-04-15T17:43:13.753Z,8.88
2023-04-15T17:44:13.740Z,6.32
2023-04-15T17:45:13.754Z,3.72
2023-04-15T17:46:13.831Z,3.24
2023-04-15T17:47:12.781Z,2.40
2023-04-15T17:48:13.764Z,3.96
2023-04-15T17:49:13.674Z,7.84
2023-04-15T17:50:13.636Z,7.16
2023-04-15T17:51:13.578Z,6.00
2023-04-15T17:52:13.522Z,3.44
2023-04-15T17:53:13.445Z,8.24
2023-04-15T17:54:13.769Z,3.32
2023-04-15T17:55:13.908Z,3.96
2023-04-15T17:56:12.699Z,6.24
2023-04-15T17:57:13.678Z,4.80
2023-04-15T17:58:13.895Z,5.04
2023-04-15T17:59:12.870Z,2.08
2023-04-15T18:00:13.771Z,4.48
2023-04-15T18:01:13.757Z,4.20
2023-04-15T18:02:13.717Z,1.44
2023-04-15T18:03:13.779Z,2.60
2023-04-15T18:04:14.040Z,6.56
2023-04-15T18:05:13.498Z,5.44
2023-04-15T18:06:13.548Z,8.56
2023-04-15T18:07:13.566Z,5.40
2023-04-15T18:08:13.678Z,7.72
2023-04-15T18:09:19.012Z,8.80
2023-04-15T18:10:13.452Z,4.72
2023-04-15T18:11:13.603Z,2.76
2023-04-15T18:12:13.984Z,2.04
2023-04-15T18:13:13.284Z,5.48
2023-04-15T18:14:17.727Z,4.60
2023-04-15T18:15:13.156Z,4.80
2023-04-15T18:16:37.178Z,6.06
2023-04-15T18:17:14.350Z,12.72
2023-04-15T18:18:26.294Z,4.50
2023-04-15T18:20:13.334Z,2.06
2023-04-15T18:21:13.836Z,4.84
2023-04-15T18:22:14.023Z,5.96
2023-04-15T18:23:13.062Z,4.48
2023-04-15T18:25:13.546Z,3.12
2023-04-15T18:26:13.431Z,3.24
2023-04-15T18:28:12.774Z,6.60
2023-04-15T18:29:33.929Z,2.40
2023-04-15T18:30:12.784Z,2.48
2023-04-15T18:31:13.776Z,4.24
2023-04-15T18:32:13.793Z,7.08
2023-04-15T18:33:13.725Z,3.40
2023-04-15T18:34:13.829Z,3.64
2023-04-15T18:35:13.902Z,8.88
2023-04-15T18:36:13.065Z,8.28
2023-04-15T18:37:13.101Z,4.04
2023-04-15T18:38:13.106Z,3.72
2023-04-15T18:39:13.113Z,10.36
2023-04-15T18:40:18.070Z,10.92
2023-04-15T18:41:13.213Z,7.04
2023-04-15T18:42:13.521Z,2.60
2023-04-15T18:43:13.362Z,1.20
2023-04-15T18:44:13.193Z,5.28
2023-04-15T18:45:13.256Z,6.32
2023-04-15T18:46:13.148Z,6.00
2023-04-15T18:47:13.143Z,4.36
2023-04-15T18:48:13.077Z,3.64
2023-04-15T18:49:13.085Z,4.88
2023-04-15T18:50:12.983Z,4.04
2023-04-15T18:51:13.321Z,2.28
2023-04-15T18:52:13.502Z,5.40
2023-04-15T18:53:13.372Z,6.60
2023-04-15T18:54:13.249Z,9.36
2023-04-15T18:55:19.271Z,10.64
2023-04-15T18:56:13.260Z,5.44
2023-04-15T18:57:13.525Z,4.08
2023-04-15T18:58:13.791Z,7.32
2023-04-15T18:59:29.801Z,8.68
2023-04-15T19:00:13.593Z,6.04
2023-04-15T19:01:13.550Z,6.52
2023-04-15T19:02:13.895Z,6.88
2023-04-15T19:03:12.855Z,5.36
2023-04-15T19:04:13.058Z,12.32
2023-04-15T19:05:13.078Z,8.36
2023-04-15T19:06:12.978Z,7.16
2023-04-15T19:07:12.912Z,11.04
2023-04-15T19:08:12.807Z,9.64
2023-04-15T19:09:14.162Z,9.72
2023-04-15T19:10:13.101Z,7.48
2023-04-15T19:11:13.178Z,4.84
2023-04-15T19:12:12.995Z,3.68
2023-04-15T19:13:13.239Z,4.28
2023-04-15T19:14:13.113Z,6.52
2023-04-15T19:15:13.458Z,6.48
2023-04-15T19:16:13.478Z,8.16
2023-04-15T19:17:13.544Z,11.80
2023-04-15T19:18:13.444Z,6.72
2023-04-15T19:19:13.391Z,10.32
2023-04-15T19:20:13.740Z,4.12
2023-04-15T19:21:13.800Z,4.48
2023-04-15T19:22:13.948Z,10.40
2023-04-15T19:23:12.848Z,11.80
2023-04-15T19:24:13.857Z,6.93
2023-04-15T19:25:13.808Z,7.23
2023-04-15T19:26:13.719Z,5.38
2023-04-15T19:27:13.846Z,3.92
2023-04-15T19:28:13.750Z,3.12
2023-04-15T19:29:13.957Z,5.80
2023-04-15T19:30:12.929Z,6.36
2023-04-15T19:31:12.860Z,6.60
2023-04-15T19:32:12.674Z,9.16
2023-04-15T19:33:13.649Z,6.16
2023-04-15T19:34:13.731Z,7.56
2023-04-15T19:35:13.667Z,10.76
2023-04-15T19:36:13.523Z,9.48
2023-04-15T19:37:13.349Z,6.24
2023-04-15T19:38:13.269Z,4.72
2023-04-15T19:39:13.194Z,5.44
2023-04-15T19:40:13.111Z,6.44
2023-04-15T19:41:13.247Z,9.24
2023-04-15T19:42:13.149Z,8.12
2023-04-15T19:43:13.162Z,4.00
2023-04-15T19:44:13.162Z,3.68
2023-04-15T19:45:13.041Z,4.44
2023-04-15T19:46:13.206Z,4.88
2023-04-15T19:47:13.223Z,9.36
2023-04-15T19:48:13.152Z,4.04
2023-04-15T19:49:13.214Z,8.48
2023-04-15T19:50:13.098Z,5.72
2023-04-15T19:51:13.134Z,7.16
2023-04-15T19:52:13.162Z,3.16
2023-04-15T19:53:13.075Z,5.88
2023-04-15T19:54:13.142Z,5.24
2023-04-15T19:55:13.154Z,3.48
2023-04-15T19:56:13.168Z,5.44
2023-04-15T19:57:13.028Z,4.48
2023-04-15T19:58:13.115Z,7.36
2023-04-15T19:59:13.018Z,7.68
2023-04-15T20:00:13.059Z,5.96
2023-04-15T20:01:13.191Z,3.68
2023-04-15T20:02:13.466Z,4.56
2023-04-15T20:03:14.323Z,7.08
2023-04-15T20:04:13.517Z,5.44
2023-04-15T20:05:13.405Z,11.52
2023-04-15T20:06:13.571Z,5.80
2023-04-15T20:07:13.883Z,5.36
2023-04-15T20:08:12.759Z,3.76
2023-04-15T20:09:13.767Z,5.48
2023-04-15T20:10:13.793Z,2.92
2023-04-15T20:11:15.301Z,5.24
2023-04-15T20:12:50.925Z,5.04
2023-04-15T20:13:12.859Z,6.05
2023-04-15T20:14:13.868Z,7.08
2023-04-15T20:15:13.696Z,6.60
2023-04-15T20:16:14.009Z,9.68
2023-04-15T20:17:13.233Z,6.48
2023-04-15T20:18:13.432Z,6.16
2023-04-15T20:19:13.473Z,11.48
2023-04-15T20:20:23.788Z,4.92
2023-04-15T20:21:13.996Z,9.76
2023-04-15T20:22:13.015Z,5.48
2023-04-15T20:23:12.819Z,9.32
2023-04-15T20:24:13.637Z,7.72
2023-04-15T20:25:13.623Z,5.00